Evansville, IN

1:06 PM CST on December 25, 2014 (GMT -0600)
Evansville Regional | Change Station
CLOSE
Current Station
Airport
Location: Evansville,
Elevation: 387 ft
Nearby Weather Stations

Elev 387 ft 38.04 °N, 87.52 °W | Updated 12 minutes ago

Clear
Clear
47 °F
Feels Like 47 °F
N
15
Wind Variable Wind from SSW

Today
High -- | Low -- °F
--% Chance of Precip.
Yesterday
High -- | Low -- °F
Precip. -- in
7:04 AM 4:36 PM
Waxing Crescent, 18% visible
Pressure 30.14 in
Visibility 10.0 miles
Clouds Scattered Clouds 2900 ft
Dew Point 34 °F
Humidity 61%
Rainfall 0.00 in
Snow Depth Not available.
UV 2 out of 12
Pollen 2.40 out of 12
Air Quality Not available.
Flu Activity Not available.
METAR KEVV 251854Z 20013KT 10SM SCT029 08/01 A3013 RMK AO2 SLP204 T00830011

More Conditions Fewer Conditions

Pressure 30.14 in
Visibility 10.0 miles
Clouds Scattered Clouds 2900 ft
Dew Point 34 °F
Humidity 61%
Rainfall 0.00 in
Snow Depth Not available.
UV 2 out of 12
Pollen 2.40 out of 12
Air Quality Not available.
Flu Activity Not available.
METAR KEVV 251854Z 20013KT 10SM SCT029 08/01 A3013 RMK AO2 SLP204 T00830011

More Conditions Fewer Conditions

10-Day Weather Forecast

Almanac

Astronomy

Dec. 25, 2014 Rise Set
Actual Time
Civil Twilight
Nautical Twilight
Astronomical Twilight
Moon
Length of Visible Light
Length of Day
Tomorrow will be .
, % of the Moon is Illuminated

Today's Extremes

State Highs State Lows

Community

WunderPhotos

Upload Photos

1,780,364 photos uploaded!

WunderBlogs® & News

Nearby

Air Quality

  Air Quality AQ Index Pollutant
Not available.

Snow Depth

Station Depth Elevation

Earthquake Activity

City Distance Mag. Time & Date
Minimum magnitude displayed is 2.5.

Coastal Water Temperatures

Place Temperature

Nearby Weather Stations